createdAt,value
2019-03-25T00:02:25.762Z,8.60
2019-03-25T00:05:11.755Z,8.60
2019-03-25T00:07:57.537Z,8.60
2019-03-25T00:10:43.449Z,8.60
2019-03-25T00:13:29.256Z,8.60
2019-03-25T00:16:15.181Z,8.60
2019-03-25T00:19:00.533Z,8.60
2019-03-25T00:21:46.697Z,8.60
2019-03-25T00:24:38.707Z,8.50
2019-03-25T00:27:20.534Z,8.50
2019-03-25T00:30:06.408Z,8.50
2019-03-25T00:32:52.283Z,8.50
2019-03-25T00:35:38.097Z,8.50
2019-03-25T00:38:23.898Z,8.50
2019-03-25T00:41:29.242Z,8.60
2019-03-25T00:44:15.321Z,8.60
2019-03-25T00:47:01.085Z,8.60
2019-03-25T00:49:47.342Z,8.60
2019-03-25T00:52:33.569Z,8.60
2019-03-25T00:55:21.131Z,8.50
2019-03-25T00:58:08.236Z,8.50
2019-03-25T01:00:54.430Z,8.50
2019-03-25T01:03:40.832Z,8.50
2019-03-25T01:06:26.676Z,8.50
2019-03-25T01:09:12.487Z,8.50
2019-03-25T01:11:57.772Z,8.50
2019-03-25T01:14:43.746Z,8.50
2019-03-25T01:17:29.666Z,8.50
2019-03-25T01:20:15.623Z,8.50
2019-03-25T01:23:01.895Z,8.60
2019-03-25T01:25:47.729Z,8.50
2019-03-25T01:28:33.841Z,8.50
2019-03-25T01:31:19.866Z,8.50
2019-03-25T01:34:05.664Z,8.50
2019-03-25T01:36:51.592Z,8.60
2019-03-25T01:39:37.639Z,8.60
2019-03-25T01:42:23.910Z,8.60
2019-03-25T01:45:10.210Z,8.60
2019-03-25T01:47:56.203Z,8.60
2019-03-25T01:50:41.440Z,8.60
2019-03-25T01:53:27.452Z,8.60
2019-03-25T01:56:13.407Z,8.60
2019-03-25T01:58:59.757Z,8.60
2019-03-25T02:01:45.742Z,8.60
2019-03-25T02:04:31.164Z,8.50
2019-03-25T02:07:17.164Z,8.50
2019-03-25T02:10:03.407Z,8.50
2019-03-25T02:12:49.604Z,8.50
2019-03-25T02:15:35.385Z,8.50
2019-03-25T02:18:20.743Z,8.50
2019-03-25T02:21:07.270Z,8.50
2019-03-25T02:23:53.518Z,8.60
2019-03-25T02:26:39.372Z,8.50
2019-03-25T02:29:25.304Z,8.50
2019-03-25T02:32:11.190Z,8.50
2019-03-25T02:34:56.475Z,8.50
2019-03-25T02:37:42.506Z,8.50
2019-03-25T02:40:28.415Z,8.50
2019-03-25T02:43:14.291Z,8.50
2019-03-25T02:46:00.521Z,8.50
2019-03-25T02:48:46.672Z,8.50
2019-03-25T02:51:32.532Z,8.40
2019-03-25T02:54:18.347Z,8.40
2019-03-25T02:57:04.365Z,8.40
2019-03-25T02:59:50.255Z,8.40
2019-03-25T03:02:35.542Z,8.30
2019-03-25T03:05:21.367Z,8.40
2019-03-25T03:08:07.466Z,8.30
2019-03-25T03:10:53.862Z,8.30
2019-03-25T03:13:39.724Z,8.30
2019-03-25T03:16:25.565Z,8.20
2019-03-25T03:19:11.430Z,8.30
2019-03-25T03:21:59.240Z,8.30
2019-03-25T03:24:45.377Z,8.20
2019-03-25T03:27:31.281Z,8.20
2019-03-25T03:30:17.212Z,8.20
2019-03-25T03:33:02.483Z,8.10
2019-03-25T03:35:48.532Z,8.00
2019-03-25T03:38:35.216Z,8.10
2019-03-25T03:41:21.508Z,8.10
2019-03-25T03:44:07.749Z,8.00
2019-03-25T03:46:53.646Z,8.00
2019-03-25T03:49:40.001Z,8.00
2019-03-25T03:52:26.358Z,7.90
2019-03-25T03:55:12.368Z,7.90
2019-03-25T03:57:58.786Z,7.90
2019-03-25T04:00:44.659Z,7.90
2019-03-25T04:03:30.081Z,7.80
2019-03-25T04:06:15.969Z,7.80
2019-03-25T04:09:03.028Z,7.80
2019-03-25T04:11:49.284Z,7.80
2019-03-25T04:14:35.137Z,7.80
2019-03-25T04:17:21.061Z,7.80
2019-03-25T04:20:06.997Z,7.80
2019-03-25T04:22:52.770Z,7.80
2019-03-25T04:25:38.138Z,7.70
2019-03-25T04:28:23.989Z,7.70
2019-03-25T04:31:11.799Z,7.70
2019-03-25T04:33:57.775Z,7.70
2019-03-25T04:36:43.585Z,7.70
2019-03-25T04:39:29.429Z,7.70
2019-03-25T04:42:15.176Z,7.70
2019-03-25T04:45:01.137Z,7.70
2019-03-25T04:47:46.668Z,7.70
2019-03-25T04:50:32.412Z,7.60
2019-03-25T04:53:18.162Z,7.70
2019-03-25T04:56:03.517Z,7.70
2019-03-25T04:58:49.657Z,7.80
2019-03-25T05:01:35.607Z,7.70
2019-03-25T05:04:21.345Z,7.70
2019-03-25T05:07:07.233Z,7.80
2019-03-25T05:09:53.226Z,7.80
2019-03-25T05:12:39.329Z,7.80
2019-03-25T05:15:25.527Z,7.80
2019-03-25T05:18:11.656Z,7.80
2019-03-25T05:20:57.562Z,7.80
2019-03-25T05:23:42.947Z,7.80
2019-03-25T05:26:30.756Z,7.80
2019-03-25T05:29:16.778Z,7.70
2019-03-25T05:32:02.971Z,7.80
2019-03-25T05:34:48.650Z,7.80
2019-03-25T05:37:34.620Z,7.80
2019-03-25T05:40:19.915Z,7.80
2019-03-25T05:43:05.889Z,7.80
2019-03-25T05:45:52.157Z,7.80
2019-03-25T05:48:38.657Z,7.80
2019-03-25T05:51:24.805Z,7.80
2019-03-25T05:54:10.361Z,7.80
2019-03-25T05:57:02.384Z,7.80
2019-03-25T05:59:44.012Z,7.80
2019-03-25T06:02:30.057Z,7.80
2019-03-25T06:05:15.954Z,7.80
2019-03-25T06:08:01.699Z,7.80
2019-03-25T06:10:47.855Z,7.70
2019-03-25T06:13:33.790Z,7.70
2019-03-25T06:16:20.142Z,7.80
2019-03-25T06:19:05.987Z,7.70
2019-03-25T06:21:51.745Z,7.70
2019-03-25T06:24:37.232Z,7.70
2019-03-25T06:27:23.188Z,7.70
2019-03-25T06:30:09.139Z,7.70
2019-03-25T06:32:55.532Z,7.70
2019-03-25T06:35:41.784Z,7.70
2019-03-25T06:38:28.157Z,7.80
2019-03-25T06:41:13.957Z,7.70
2019-03-25T06:43:59.866Z,7.70
2019-03-25T06:46:45.856Z,7.70
2019-03-25T06:49:31.887Z,7.70
2019-03-25T06:52:17.616Z,7.80
2019-03-25T06:55:03.681Z,7.80
2019-03-25T06:57:50.086Z,7.80
2019-03-25T07:00:36.294Z,7.80
2019-03-25T07:03:22.121Z,7.90
2019-03-25T07:06:08.011Z,8.00
2019-03-25T07:08:54.048Z,8.00
2019-03-25T07:11:40.051Z,8.00
2019-03-25T07:14:25.756Z,8.00
2019-03-25T07:17:11.744Z,8.10
2019-03-25T07:19:57.590Z,8.10
2019-03-25T07:22:42.971Z,8.10
2019-03-25T07:25:29.070Z,8.20
2019-03-25T07:28:14.727Z,8.20
2019-03-25T07:31:00.108Z,8.30
2019-03-25T07:33:46.662Z,8.30
2019-03-25T07:36:33.825Z,8.40
2019-03-25T07:39:19.952Z,8.40
2019-03-25T07:42:06.190Z,8.40
2019-03-25T07:44:52.170Z,8.50
2019-03-25T07:47:37.875Z,8.50
2019-03-25T07:50:23.725Z,8.60
2019-03-25T07:53:09.110Z,8.60
2019-03-25T07:55:55.071Z,8.70
2019-03-25T07:58:41.150Z,8.70
2019-03-25T08:01:26.822Z,8.70
2019-03-25T08:04:12.609Z,8.70
2019-03-25T08:07:01.689Z,8.80
2019-03-25T08:09:47.609Z,8.80
2019-03-25T08:12:33.987Z,8.80
2019-03-25T08:15:19.366Z,8.80
2019-03-25T08:18:05.459Z,8.90
2019-03-25T08:20:51.443Z,8.90
2019-03-25T08:23:37.965Z,9.00
2019-03-25T08:26:23.795Z,9.10
2019-03-25T08:29:10.029Z,9.10
2019-03-25T08:31:59.090Z,9.20
2019-03-25T08:34:46.093Z,9.20
2019-03-25T08:37:32.197Z,9.30
2019-03-25T08:40:17.610Z,9.40
2019-03-25T08:43:03.572Z,9.40
2019-03-25T08:45:49.825Z,9.50
2019-03-25T08:48:37.785Z,9.60
2019-03-25T08:51:23.622Z,9.60
2019-03-25T08:54:09.482Z,9.50
2019-03-25T08:56:55.811Z,9.60
2019-03-25T08:59:41.741Z,9.60
2019-03-25T09:02:28.884Z,9.60
2019-03-25T09:05:15.213Z,9.70
2019-03-25T09:08:01.285Z,9.80
2019-03-25T09:10:46.532Z,9.90
2019-03-25T09:13:32.605Z,10.00
2019-03-25T09:16:18.966Z,10.00
2019-03-25T09:19:04.316Z,10.20
2019-03-25T09:21:57.661Z,10.30
2019-03-25T09:24:43.642Z,10.50
2019-03-25T09:27:30.565Z,10.60
2019-03-25T09:30:54.232Z,10.70
2019-03-25T09:33:40.690Z,10.80
2019-03-25T09:36:26.805Z,10.80
2019-03-25T09:39:12.701Z,10.80
2019-03-25T09:41:58.675Z,10.80
2019-03-25T09:44:44.402Z,10.70
2019-03-25T09:47:30.321Z,10.70
2019-03-25T09:50:16.086Z,10.70
2019-03-25T09:53:02.021Z,10.70
2019-03-25T09:55:47.903Z,10.70
2019-03-25T09:58:36.538Z,10.70
2019-03-25T10:01:21.628Z,10.80
2019-03-25T10:04:07.477Z,10.90
2019-03-25T10:06:53.141Z,11.00
2019-03-25T10:09:39.052Z,11.20
2019-03-25T10:12:24.918Z,11.30
2019-03-25T10:15:10.709Z,11.50
2019-03-25T10:17:56.104Z,11.60
2019-03-25T10:20:41.947Z,11.60
2019-03-25T10:23:27.861Z,11.60
2019-03-25T10:26:13.653Z,11.60
2019-03-25T10:28:59.532Z,11.50
2019-03-25T10:31:46.063Z,11.50
2019-03-25T10:34:32.079Z,11.40
2019-03-25T10:37:17.889Z,11.30
2019-03-25T10:40:04.098Z,11.30
2019-03-25T10:42:50.247Z,11.20
2019-03-25T10:45:35.516Z,11.30
2019-03-25T10:48:21.294Z,11.40
2019-03-25T10:51:07.134Z,11.50
2019-03-25T10:53:53.110Z,11.70
2019-03-25T10:56:41.877Z,11.80
2019-03-25T10:59:46.412Z,11.90
2019-03-25T11:02:32.201Z,12.00
2019-03-25T11:05:18.017Z,12.10
2019-03-25T11:08:03.844Z,12.20
2019-03-25T11:10:50.015Z,12.30
2019-03-25T11:13:36.281Z,12.50
2019-03-25T11:16:21.673Z,12.70
2019-03-25T11:19:08.018Z,12.90
2019-03-25T11:21:54.055Z,13.00
2019-03-25T11:24:40.572Z,13.10
2019-03-25T11:27:26.769Z,13.20
2019-03-25T11:30:12.959Z,13.20
2019-03-25T11:32:58.644Z,13.30
2019-03-25T11:35:44.465Z,13.30
2019-03-25T11:38:30.260Z,13.40
2019-03-25T11:41:16.201Z,13.40
2019-03-25T11:44:02.045Z,13.50
2019-03-25T11:46:47.960Z,13.60
2019-03-25T11:49:33.682Z,13.60
2019-03-25T11:52:19.715Z,13.70
2019-03-25T11:55:05.679Z,13.80
2019-03-25T11:57:51.456Z,13.90
2019-03-25T12:00:37.384Z,13.90
2019-03-25T12:03:26.535Z,14.00
2019-03-25T12:06:14.835Z,14.10
2019-03-25T12:09:03.627Z,14.10
2019-03-25T12:11:49.819Z,14.10
2019-03-25T12:14:38.516Z,14.20
2019-03-25T12:17:24.741Z,14.10
2019-03-25T12:20:10.826Z,14.10
2019-03-25T12:22:58.376Z,14.20
2019-03-25T12:25:44.991Z,14.20
2019-03-25T12:28:31.109Z,14.30
2019-03-25T12:31:18.569Z,14.40
2019-03-25T12:34:10.577Z,14.40
2019-03-25T12:36:56.611Z,14.40
2019-03-25T12:39:43.331Z,14.50
2019-03-25T12:42:29.443Z,14.60
2019-03-25T12:45:15.383Z,14.60
2019-03-25T12:48:01.277Z,14.60
2019-03-25T12:50:46.629Z,14.70
2019-03-25T12:53:33.010Z,14.60
2019-03-25T12:56:19.473Z,14.50
2019-03-25T12:59:05.249Z,14.50
2019-03-25T13:01:53.454Z,14.50
2019-03-25T13:04:40.596Z,14.50
2019-03-25T13:07:27.084Z,14.40
2019-03-25T13:10:13.940Z,14.40
2019-03-25T13:12:59.971Z,14.30
2019-03-25T13:15:46.153Z,14.30
2019-03-25T13:18:32.271Z,14.30
2019-03-25T13:21:18.568Z,14.30
2019-03-25T13:24:04.582Z,14.20
2019-03-25T13:26:50.952Z,14.20
2019-03-25T13:29:37.270Z,14.20
2019-03-25T13:32:23.061Z,14.20
2019-03-25T13:35:10.918Z,14.10
2019-03-25T13:37:58.951Z,14.10
2019-03-25T13:40:44.699Z,14.10
2019-03-25T13:43:30.568Z,14.10
2019-03-25T13:46:16.065Z,14.10
2019-03-25T13:49:01.955Z,14.10
2019-03-25T13:51:47.870Z,14.10
2019-03-25T13:54:33.749Z,14.10
2019-03-25T13:57:19.641Z,14.10
2019-03-25T14:00:05.942Z,14.00
2019-03-25T14:02:52.180Z,14.00
2019-03-25T14:05:38.059Z,14.00
2019-03-25T14:08:23.500Z,14.00
2019-03-25T14:11:12.435Z,14.00
2019-03-25T14:14:00.241Z,14.00
2019-03-25T14:16:46.464Z,14.00
2019-03-25T14:19:32.377Z,14.00
2019-03-25T14:22:18.093Z,14.00
2019-03-25T14:25:03.881Z,14.00
2019-03-25T14:27:49.924Z,13.90
2019-03-25T14:30:35.827Z,14.00
2019-03-25T14:33:21.571Z,13.90
2019-03-25T14:36:07.500Z,13.90
2019-03-25T14:38:53.574Z,13.90
2019-03-25T14:41:39.371Z,13.90
2019-03-25T14:44:25.184Z,14.00
2019-03-25T14:47:11.288Z,13.90
2019-03-25T14:49:57.196Z,13.90
2019-03-25T14:52:43.053Z,13.90
2019-03-25T14:55:29.061Z,13.90
2019-03-25T14:58:14.612Z,13.90
2019-03-25T15:01:00.080Z,13.90
2019-03-25T15:03:46.071Z,13.90
2019-03-25T15:06:34.083Z,13.90
2019-03-25T15:09:19.970Z,13.90
2019-03-25T15:12:05.869Z,13.90
2019-03-25T15:14:51.626Z,13.80
2019-03-25T15:17:37.486Z,13.80
2019-03-25T15:20:23.394Z,13.80
2019-03-25T15:23:09.192Z,13.70
2019-03-25T15:25:55.036Z,13.70
2019-03-25T15:28:40.984Z,13.70
2019-03-25T15:31:26.752Z,13.70
2019-03-25T15:34:12.744Z,13.70
2019-03-25T15:36:59.409Z,13.70
2019-03-25T15:39:46.833Z,13.60
2019-03-25T15:42:33.176Z,13.60
2019-03-25T15:45:18.592Z,13.60
2019-03-25T15:48:04.549Z,13.60
2019-03-25T15:50:50.436Z,13.60
2019-03-25T15:53:35.726Z,13.50
2019-03-25T15:56:21.677Z,13.50
2019-03-25T15:59:07.533Z,13.50
2019-03-25T16:01:53.322Z,13.50
2019-03-25T16:04:39.128Z,13.50
2019-03-25T16:07:24.661Z,13.50
2019-03-25T16:10:10.677Z,13.60
2019-03-25T16:12:56.538Z,13.50
2019-03-25T16:15:42.452Z,13.50
2019-03-25T16:18:38.787Z,13.40
2019-03-25T16:21:24.843Z,13.40
2019-03-25T16:24:10.624Z,13.40
2019-03-25T16:26:56.053Z,13.50
2019-03-25T16:29:42.103Z,13.50
2019-03-25T16:32:27.714Z,13.50
2019-03-25T16:35:13.676Z,13.60
2019-03-25T16:37:59.542Z,13.60
2019-03-25T16:40:45.000Z,13.50
2019-03-25T16:43:32.229Z,13.50
2019-03-25T16:46:18.838Z,13.40
2019-03-25T16:49:04.913Z,13.40
2019-03-25T16:51:50.754Z,13.30
2019-03-25T16:54:36.624Z,13.20
2019-03-25T16:57:22.592Z,13.10
2019-03-25T17:00:08.437Z,13.10
2019-03-25T17:02:53.775Z,13.00
2019-03-25T17:05:39.603Z,12.90
2019-03-25T17:08:25.389Z,12.90
2019-03-25T17:11:11.404Z,12.80
2019-03-25T17:13:58.911Z,12.80
2019-03-25T17:16:45.271Z,12.70
2019-03-25T17:19:31.497Z,12.60
2019-03-25T17:22:17.261Z,12.50
2019-03-25T17:25:03.281Z,12.50
2019-03-25T17:27:51.441Z,12.40
2019-03-25T17:38:26.647Z,12.20
2019-03-25T17:41:14.677Z,12.10
2019-03-25T17:44:03.634Z,12.10
2019-03-25T17:46:49.573Z,12.00
2019-03-25T17:49:35.345Z,12.00
2019-03-25T17:56:55.864Z,12.00
2019-03-25T17:59:43.439Z,11.90
2019-03-25T18:02:34.221Z,11.90
2019-03-25T18:05:22.660Z,11.80
2019-03-25T18:08:11.138Z,11.80
2019-03-25T18:10:57.350Z,11.70
2019-03-25T18:13:45.869Z,11.60
2019-03-25T18:16:32.092Z,11.60
2019-03-25T18:19:17.532Z,11.60
2019-03-25T18:22:04.531Z,11.50
2019-03-25T18:24:50.520Z,11.40
2019-03-25T18:27:36.852Z,11.40
2019-03-25T18:30:29.545Z,11.30
2019-03-25T18:33:16.925Z,11.30
2019-03-25T18:36:03.216Z,11.30
2019-03-25T18:38:52.218Z,11.20
2019-03-25T18:41:41.884Z,11.20
2019-03-25T18:44:28.115Z,11.10
2019-03-25T18:47:14.240Z,11.10
2019-03-25T18:50:03.603Z,11.10
2019-03-25T18:52:50.640Z,11.00
2019-03-25T18:55:40.107Z,11.00
2019-03-25T18:58:28.393Z,11.00
2019-03-25T19:01:18.288Z,10.90
2019-03-25T19:04:04.238Z,10.90
2019-03-25T19:06:50.689Z,10.90
2019-03-25T19:09:37.988Z,10.80
2019-03-25T19:12:25.355Z,10.80
2019-03-25T19:15:14.264Z,10.90
2019-03-25T19:18:02.299Z,10.80
2019-03-25T19:20:48.769Z,10.70
2019-03-25T19:23:35.352Z,10.70
2019-03-25T19:26:22.711Z,10.70
2019-03-25T19:29:09.282Z,10.60
2019-03-25T19:32:06.251Z,10.60
2019-03-25T19:34:44.409Z,10.60
2019-03-25T19:37:31.091Z,10.60
2019-03-25T19:40:17.248Z,10.50
2019-03-25T19:43:03.907Z,10.50
2019-03-25T19:45:51.042Z,10.50
2019-03-25T19:48:39.183Z,10.50
2019-03-25T19:51:27.491Z,10.50
2019-03-25T19:54:15.878Z,10.40
2019-03-25T19:57:02.112Z,10.40
2019-03-25T19:59:48.188Z,10.40
2019-03-25T20:02:37.372Z,10.40
2019-03-25T20:05:24.594Z,10.30
2019-03-25T20:08:10.794Z,10.30
2019-03-25T20:10:59.131Z,10.30
2019-03-25T20:13:45.889Z,10.30
2019-03-25T20:16:31.891Z,10.30
2019-03-25T20:19:17.814Z,10.30
2019-03-25T20:22:03.758Z,10.30
2019-03-25T20:24:49.686Z,10.20
2019-03-25T20:27:35.115Z,10.20
2019-03-25T20:30:21.024Z,10.20
2019-03-25T20:33:08.566Z,10.20
2019-03-25T20:35:55.380Z,10.20
2019-03-25T20:38:41.944Z,10.10
2019-03-25T20:41:30.585Z,10.10
2019-03-25T20:44:17.555Z,10.10
2019-03-25T20:47:06.184Z,10.10
2019-03-25T20:49:52.289Z,10.10
2019-03-25T20:52:38.494Z,10.10
2019-03-25T20:55:24.057Z,10.10
2019-03-25T20:58:11.257Z,10.00
2019-03-25T21:00:59.437Z,10.00
2019-03-25T21:03:45.579Z,10.00
2019-03-25T21:06:31.403Z,9.90
2019-03-25T21:09:19.451Z,10.00
2019-03-25T21:12:06.882Z,10.00
2019-03-25T21:14:52.566Z,9.90
2019-03-25T21:17:38.393Z,9.90
2019-03-25T21:20:24.834Z,9.90
2019-03-25T21:23:10.775Z,9.90
2019-03-25T21:25:56.839Z,9.90
2019-03-25T21:28:43.127Z,9.90
2019-03-25T21:31:28.990Z,9.80
2019-03-25T21:34:15.413Z,9.80
2019-03-25T21:37:05.585Z,9.80
2019-03-25T21:39:50.884Z,9.80
2019-03-25T21:42:36.958Z,9.80
2019-03-25T21:45:27.410Z,9.80
2019-03-25T21:48:15.982Z,9.80
2019-03-25T21:51:02.395Z,9.80
2019-03-25T21:53:48.391Z,9.70
2019-03-25T21:56:35.651Z,9.70
2019-03-25T21:59:23.818Z,9.70
2019-03-25T22:02:09.770Z,9.70
2019-03-25T22:04:57.347Z,9.70
2019-03-25T22:07:43.435Z,9.70
2019-03-25T22:10:30.066Z,9.70
2019-03-25T22:13:16.474Z,9.70
2019-03-25T22:16:01.766Z,9.70
2019-03-25T22:18:47.752Z,9.60
2019-03-25T22:21:34.076Z,9.70
2019-03-25T22:24:20.001Z,9.60
2019-03-25T22:27:06.180Z,9.60
2019-03-25T22:29:52.412Z,9.60
2019-03-25T22:32:38.216Z,9.60
2019-03-25T22:35:23.655Z,9.60
2019-03-25T22:38:09.617Z,9.60
2019-03-25T22:40:55.047Z,9.60
2019-03-25T22:43:40.840Z,9.50
2019-03-25T22:46:26.599Z,9.50
2019-03-25T22:49:12.132Z,9.50
2019-03-25T22:51:58.316Z,9.50
2019-03-25T22:54:43.965Z,9.50
2019-03-25T22:57:29.832Z,9.50
2019-03-25T23:00:16.992Z,9.50
2019-03-25T23:03:03.327Z,9.50
2019-03-25T23:05:49.070Z,9.50
2019-03-25T23:08:36.024Z,9.50
2019-03-25T23:11:21.969Z,9.50
2019-03-25T23:14:07.785Z,9.40
2019-03-25T23:16:53.809Z,9.40
2019-03-25T23:19:39.080Z,9.40
2019-03-25T23:22:25.017Z,9.40
2019-03-25T23:25:10.956Z,9.40
2019-03-25T23:27:56.701Z,9.40
2019-03-25T23:30:42.516Z,9.40
2019-03-25T23:33:27.969Z,9.40
2019-03-25T23:36:13.860Z,9.30
2019-03-25T23:38:59.850Z,9.40
2019-03-25T23:41:45.655Z,9.40
2019-03-25T23:44:31.715Z,9.30
2019-03-25T23:47:17.955Z,9.30
2019-03-25T23:50:04.564Z,9.30
2019-03-25T23:52:50.298Z,9.30
2019-03-25T23:55:36.317Z,9.30
2019-03-25T23:58:22.216Z,9.30
